sensor_id;sensor_type;location;lat;lon;timestamp;P1;durP1;ratioP1;P2;durP2;ratioP2
78783;SDS011;68127;51.050;14.084;2023-07-13T00:02:02;4.18;;;2.08;;
78783;SDS011;68127;51.050;14.084;2023-07-13T00:04:27;4.20;;;2.17;;
78783;SDS011;68127;51.050;14.084;2023-07-13T00:06:53;4.40;;;2.08;;
78783;SDS011;68127;51.050;14.084;2023-07-13T00:09:19;5.95;;;2.10;;
78783;SDS011;68127;51.050;14.084;2023-07-13T00:11:45;6.00;;;2.30;;
78783;SDS011;68127;51.050;14.084;2023-07-13T00:14:16;4.18;;;2.03;;
78783;SDS011;68127;51.050;14.084;2023-07-13T00:16:41;4.65;;;2.30;;
78783;SDS011;68127;51.050;14.084;2023-07-13T00:19:08;3.92;;;2.13;;
78783;SDS011;68127;51.050;14.084;2023-07-13T00:21:34;3.97;;;2.10;;
78783;SDS011;68127;51.050;14.084;2023-07-13T00:24:01;3.85;;;2.00;;
78783;SDS011;68127;51.050;14.084;2023-07-13T00:26:27;3.92;;;1.75;;
78783;SDS011;68127;51.050;14.084;2023-07-13T00:28:53;4.47;;;2.00;;
78783;SDS011;68127;51.050;14.084;2023-07-13T00:31:18;4.47;;;2.00;;
78783;SDS011;68127;51.050;14.084;2023-07-13T00:33:43;3.72;;;2.00;;
78783;SDS011;68127;51.050;14.084;2023-07-13T00:36:09;5.95;;;2.05;;
78783;SDS011;68127;51.050;14.084;2023-07-13T00:38:35;3.35;;;2.03;;
78783;SDS011;68127;51.050;14.084;2023-07-13T00:41:00;5.13;;;2.17;;
78783;SDS011;68127;51.050;14.084;2023-07-13T00:43:27;5.45;;;2.20;;
78783;SDS011;68127;51.050;14.084;2023-07-13T00:48:22;4.45;;;2.50;;
78783;SDS011;68127;51.050;14.084;2023-07-13T00:50:50;5.90;;;2.70;;
78783;SDS011;68127;51.050;14.084;2023-07-13T00:53:17;7.60;;;3.10;;
78783;SDS011;68127;51.050;14.084;2023-07-13T00:55:43;8.73;;;3.35;;
78783;SDS011;68127;51.050;14.084;2023-07-13T00:58:08;7.18;;;2.92;;
78783;SDS011;68127;51.050;14.084;2023-07-13T01:00:34;6.07;;;3.13;;
78783;SDS011;68127;51.050;14.084;2023-07-13T01:03:01;4.50;;;2.92;;
78783;SDS011;68127;51.050;14.084;2023-07-13T01:05:29;5.72;;;3.20;;
78783;SDS011;68127;51.050;14.084;2023-07-13T01:07:56;6.93;;;3.58;;
78783;SDS011;68127;51.050;14.084;2023-07-13T01:10:22;7.57;;;2.90;;
78783;SDS011;68127;51.050;14.084;2023-07-13T01:12:47;5.97;;;3.75;;
78783;SDS011;68127;51.050;14.084;2023-07-13T01:18:05;7.82;;;3.40;;
78783;SDS011;68127;51.050;14.084;2023-07-13T01:20:32;8.48;;;3.80;;
78783;SDS011;68127;51.050;14.084;2023-07-13T01:23:03;5.40;;;3.10;;
78783;SDS011;68127;51.050;14.084;2023-07-13T01:25:32;6.57;;;3.67;;
78783;SDS011;68127;51.050;14.084;2023-07-13T01:27:58;7.03;;;3.40;;
78783;SDS011;68127;51.050;14.084;2023-07-13T01:30:23;5.70;;;3.13;;
78783;SDS011;68127;51.050;14.084;2023-07-13T01:32:49;5.53;;;3.40;;
78783;SDS011;68127;51.050;14.084;2023-07-13T01:35:14;5.28;;;2.60;;
78783;SDS011;68127;51.050;14.084;2023-07-13T01:37:41;7.40;;;3.45;;
78783;SDS011;68127;51.050;14.084;2023-07-13T01:40:07;7.55;;;3.45;;
78783;SDS011;68127;51.050;14.084;2023-07-13T01:42:33;5.25;;;3.00;;
78783;SDS011;68127;51.050;14.084;2023-07-13T01:44:58;5.20;;;3.30;;
78783;SDS011;68127;51.050;14.084;2023-07-13T01:47:24;5.43;;;3.33;;
78783;SDS011;68127;51.050;14.084;2023-07-13T01:49:51;7.68;;;3.67;;
78783;SDS011;68127;51.050;14.084;2023-07-13T01:52:16;5.88;;;3.38;;
78783;SDS011;68127;51.050;14.084;2023-07-13T01:54:42;6.22;;;3.10;;
78783;SDS011;68127;51.050;14.084;2023-07-13T01:57:07;6.22;;;3.60;;
78783;SDS011;68127;51.050;14.084;2023-07-13T01:59:32;6.65;;;3.30;;
78783;SDS011;68127;51.050;14.084;2023-07-13T02:01:58;5.28;;;3.40;;
78783;SDS011;68127;51.050;14.084;2023-07-13T02:04:23;5.88;;;3.10;;
78783;SDS011;68127;51.050;14.084;2023-07-13T02:06:49;5.50;;;3.38;;
78783;SDS011;68127;51.050;14.084;2023-07-13T02:09:14;6.47;;;3.33;;
78783;SDS011;68127;51.050;14.084;2023-07-13T02:11:39;5.70;;;3.00;;
78783;SDS011;68127;51.050;14.084;2023-07-13T02:14:04;6.05;;;3.10;;
78783;SDS011;68127;51.050;14.084;2023-07-13T02:16:30;4.50;;;2.90;;
78783;SDS011;68127;51.050;14.084;2023-07-13T02:18:55;4.13;;;2.70;;
78783;SDS011;68127;51.050;14.084;2023-07-13T02:21:21;8.00;;;2.63;;
78783;SDS011;68127;51.050;14.084;2023-07-13T02:23:47;6.85;;;2.90;;
78783;SDS011;68127;51.050;14.084;2023-07-13T02:26:13;5.60;;;3.25;;
78783;SDS011;68127;51.050;14.084;2023-07-13T02:28:38;6.60;;;3.17;;
78783;SDS011;68127;51.050;14.084;2023-07-13T02:31:04;5.68;;;3.20;;
78783;SDS011;68127;51.050;14.084;2023-07-13T02:33:30;5.40;;;3.30;;
78783;SDS011;68127;51.050;14.084;2023-07-13T02:35:56;4.50;;;3.05;;
78783;SDS011;68127;51.050;14.084;2023-07-13T02:38:21;5.63;;;3.33;;
78783;SDS011;68127;51.050;14.084;2023-07-13T02:40:46;5.72;;;3.47;;
78783;SDS011;68127;51.050;14.084;2023-07-13T02:43:12;6.57;;;3.13;;
78783;SDS011;68127;51.050;14.084;2023-07-13T02:45:37;5.13;;;3.25;;
78783;SDS011;68127;51.050;14.084;2023-07-13T02:48:02;6.57;;;2.90;;
78783;SDS011;68127;51.050;14.084;2023-07-13T02:50:28;5.50;;;3.35;;
78783;SDS011;68127;51.050;14.084;2023-07-13T02:52:53;5.70;;;3.25;;
78783;SDS011;68127;51.050;14.084;2023-07-13T02:55:18;5.22;;;3.20;;
78783;SDS011;68127;51.050;14.084;2023-07-13T02:57:43;4.55;;;2.90;;
78783;SDS011;68127;51.050;14.084;2023-07-13T03:00:09;5.10;;;2.92;;
78783;SDS011;68127;51.050;14.084;2023-07-13T03:02:34;5.03;;;2.97;;
78783;SDS011;68127;51.050;14.084;2023-07-13T03:05:00;7.00;;;3.55;;
78783;SDS011;68127;51.050;14.084;2023-07-13T03:07:26;8.02;;;4.07;;
78783;SDS011;68127;51.050;14.084;2023-07-13T03:09:57;5.97;;;3.50;;
78783;SDS011;68127;51.050;14.084;2023-07-13T03:12:23;6.68;;;3.88;;
78783;SDS011;68127;51.050;14.084;2023-07-13T03:14:48;7.03;;;3.85;;
78783;SDS011;68127;51.050;14.084;2023-07-13T03:17:14;7.88;;;3.97;;
78783;SDS011;68127;51.050;14.084;2023-07-13T03:19:39;7.10;;;3.90;;
78783;SDS011;68127;51.050;14.084;2023-07-13T03:22:04;6.72;;;4.05;;
78783;SDS011;68127;51.050;14.084;2023-07-13T03:24:30;9.80;;;3.75;;
78783;SDS011;68127;51.050;14.084;2023-07-13T03:26:55;6.63;;;3.85;;
78783;SDS011;68127;51.050;14.084;2023-07-13T03:29:20;5.50;;;3.53;;
78783;SDS011;68127;51.050;14.084;2023-07-13T03:31:46;5.60;;;3.45;;
78783;SDS011;68127;51.050;14.084;2023-07-13T03:34:11;4.80;;;3.33;;
78783;SDS011;68127;51.050;14.084;2023-07-13T03:36:36;6.70;;;3.60;;
78783;SDS011;68127;51.050;14.084;2023-07-13T03:39:02;6.55;;;3.30;;
78783;SDS011;68127;51.050;14.084;2023-07-13T03:41:28;5.15;;;3.20;;
78783;SDS011;68127;51.050;14.084;2023-07-13T03:43:53;13.25;;;3.50;;
78783;SDS011;68127;51.050;14.084;2023-07-13T03:46:18;5.13;;;3.30;;
78783;SDS011;68127;51.050;14.084;2023-07-13T03:48:45;5.50;;;3.70;;
78783;SDS011;68127;51.050;14.084;2023-07-13T03:51:11;5.22;;;3.47;;
78783;SDS011;68127;51.050;14.084;2023-07-13T03:53:39;5.35;;;3.35;;
78783;SDS011;68127;51.050;14.084;2023-07-13T03:56:06;6.60;;;3.28;;
78783;SDS011;68127;51.050;14.084;2023-07-13T03:58:32;5.35;;;3.38;;
78783;SDS011;68127;51.050;14.084;2023-07-13T04:00:58;7.05;;;3.78;;
78783;SDS011;68127;51.050;14.084;2023-07-13T04:03:24;6.05;;;3.22;;
78783;SDS011;68127;51.050;14.084;2023-07-13T04:05:53;6.32;;;3.83;;
78783;SDS011;68127;51.050;14.084;2023-07-13T04:08:19;7.53;;;3.42;;
78783;SDS011;68127;51.050;14.084;2023-07-13T04:10:44;5.25;;;3.47;;
78783;SDS011;68127;51.050;14.084;2023-07-13T04:13:09;9.52;;;3.97;;
78783;SDS011;68127;51.050;14.084;2023-07-13T04:15:35;5.40;;;3.30;;
78783;SDS011;68127;51.050;14.084;2023-07-13T04:18:00;6.97;;;3.47;;
78783;SDS011;68127;51.050;14.084;2023-07-13T04:20:25;5.50;;;3.00;;
78783;SDS011;68127;51.050;14.084;2023-07-13T04:22:51;4.97;;;2.70;;
78783;SDS011;68127;51.050;14.084;2023-07-13T04:25:18;6.03;;;3.60;;
78783;SDS011;68127;51.050;14.084;2023-07-13T04:27:43;7.07;;;3.72;;
78783;SDS011;68127;51.050;14.084;2023-07-13T04:30:08;6.78;;;4.07;;
78783;SDS011;68127;51.050;14.084;2023-07-13T04:32:34;7.13;;;3.95;;
78783;SDS011;68127;51.050;14.084;2023-07-13T04:34:59;6.18;;;3.85;;
78783;SDS011;68127;51.050;14.084;2023-07-13T04:37:25;7.97;;;3.97;;
78783;SDS011;68127;51.050;14.084;2023-07-13T04:39:51;5.40;;;3.80;;
78783;SDS011;68127;51.050;14.084;2023-07-13T04:42:17;5.45;;;3.50;;
78783;SDS011;68127;51.050;14.084;2023-07-13T04:44:46;4.55;;;3.28;;
78783;SDS011;68127;51.050;14.084;2023-07-13T04:47:13;5.18;;;3.03;;
78783;SDS011;68127;51.050;14.084;2023-07-13T04:49:38;6.85;;;3.70;;
78783;SDS011;68127;51.050;14.084;2023-07-13T04:52:03;6.40;;;3.90;;
78783;SDS011;68127;51.050;14.084;2023-07-13T04:54:29;8.13;;;3.97;;
78783;SDS011;68127;51.050;14.084;2023-07-13T04:56:54;7.28;;;4.63;;
78783;SDS011;68127;51.050;14.084;2023-07-13T04:59:20;6.38;;;3.60;;
78783;SDS011;68127;51.050;14.084;2023-07-13T05:01:45;5.00;;;3.30;;
78783;SDS011;68127;51.050;14.084;2023-07-13T05:04:11;6.47;;;3.20;;
78783;SDS011;68127;51.050;14.084;2023-07-13T05:06:36;5.25;;;2.85;;
78783;SDS011;68127;51.050;14.084;2023-07-13T05:09:01;7.45;;;2.90;;
78783;SDS011;68127;51.050;14.084;2023-07-13T05:11:28;5.55;;;2.42;;
78783;SDS011;68127;51.050;14.084;2023-07-13T05:13:53;5.28;;;2.78;;
78783;SDS011;68127;51.050;14.084;2023-07-13T05:16:18;4.57;;;3.10;;
78783;SDS011;68127;51.050;14.084;2023-07-13T05:18:44;6.75;;;3.80;;
78783;SDS011;68127;51.050;14.084;2023-07-13T05:21:10;7.55;;;3.70;;
78783;SDS011;68127;51.050;14.084;2023-07-13T05:23:36;7.45;;;4.07;;
78783;SDS011;68127;51.050;14.084;2023-07-13T05:26:02;6.65;;;3.33;;
78783;SDS011;68127;51.050;14.084;2023-07-13T05:28:28;6.45;;;3.60;;
78783;SDS011;68127;51.050;14.084;2023-07-13T05:30:54;8.43;;;4.00;;
78783;SDS011;68127;51.050;14.084;2023-07-13T05:33:20;7.35;;;4.20;;
78783;SDS011;68127;51.050;14.084;2023-07-13T05:35:45;8.00;;;4.22;;
78783;SDS011;68127;51.050;14.084;2023-07-13T05:38:10;8.05;;;4.72;;
78783;SDS011;68127;51.050;14.084;2023-07-13T05:40:35;8.05;;;4.70;;
78783;SDS011;68127;51.050;14.084;2023-07-13T05:43:02;8.93;;;4.25;;
78783;SDS011;68127;51.050;14.084;2023-07-13T05:45:27;6.88;;;4.20;;
78783;SDS011;68127;51.050;14.084;2023-07-13T05:47:53;6.97;;;3.85;;
78783;SDS011;68127;51.050;14.084;2023-07-13T05:50:18;5.43;;;3.38;;
78783;SDS011;68127;51.050;14.084;2023-07-13T05:52:43;6.03;;;3.33;;
78783;SDS011;68127;51.050;14.084;2023-07-13T05:55:09;5.88;;;3.30;;
78783;SDS011;68127;51.050;14.084;2023-07-13T05:57:34;5.40;;;3.25;;
78783;SDS011;68127;51.050;14.084;2023-07-13T05:59:59;11.77;;;3.42;;
78783;SDS011;68127;51.050;14.084;2023-07-13T06:02:25;6.75;;;3.50;;
78783;SDS011;68127;51.050;14.084;2023-07-13T06:04:51;7.57;;;3.65;;
78783;SDS011;68127;51.050;14.084;2023-07-13T06:07:16;11.38;;;3.83;;
78783;SDS011;68127;51.050;14.084;2023-07-13T06:09:41;5.57;;;3.25;;
78783;SDS011;68127;51.050;14.084;2023-07-13T06:12:07;5.95;;;3.20;;
78783;SDS011;68127;51.050;14.084;2023-07-13T06:14:32;6.90;;;3.80;;
78783;SDS011;68127;51.050;14.084;2023-07-13T06:16:57;6.82;;;3.65;;
78783;SDS011;68127;51.050;14.084;2023-07-13T06:19:23;8.50;;;3.95;;
78783;SDS011;68127;51.050;14.084;2023-07-13T06:21:48;5.05;;;3.35;;
78783;SDS011;68127;51.050;14.084;2023-07-13T06:24:13;7.63;;;4.25;;
78783;SDS011;68127;51.050;14.084;2023-07-13T06:26:39;7.63;;;3.47;;
78783;SDS011;68127;51.050;14.084;2023-07-13T06:29:04;5.95;;;3.70;;
78783;SDS011;68127;51.050;14.084;2023-07-13T06:31:30;9.50;;;3.60;;
78783;SDS011;68127;51.050;14.084;2023-07-13T06:33:55;7.50;;;4.00;;
78783;SDS011;68127;51.050;14.084;2023-07-13T06:36:20;8.88;;;3.83;;
78783;SDS011;68127;51.050;14.084;2023-07-13T06:38:45;5.93;;;4.03;;
78783;SDS011;68127;51.050;14.084;2023-07-13T06:41:11;6.53;;;4.20;;
78783;SDS011;68127;51.050;14.084;2023-07-13T06:43:36;7.72;;;3.88;;
78783;SDS011;68127;51.050;14.084;2023-07-13T06:46:01;7.30;;;3.70;;
78783;SDS011;68127;51.050;14.084;2023-07-13T06:50:52;5.97;;;3.70;;
78783;SDS011;68127;51.050;14.084;2023-07-13T06:53:18;6.25;;;3.70;;
78783;SDS011;68127;51.050;14.084;2023-07-13T06:55:44;6.35;;;3.50;;
78783;SDS011;68127;51.050;14.084;2023-07-13T06:58:10;7.93;;;3.85;;
78783;SDS011;68127;51.050;14.084;2023-07-13T07:00:35;6.65;;;4.20;;
78783;SDS011;68127;51.050;14.084;2023-07-13T07:03:01;5.22;;;3.90;;
78783;SDS011;68127;51.050;14.084;2023-07-13T07:05:26;10.77;;;4.25;;
78783;SDS011;68127;51.050;14.084;2023-07-13T07:07:52;6.15;;;4.68;;
78783;SDS011;68127;51.050;14.084;2023-07-13T07:10:19;8.30;;;3.92;;
78783;SDS011;68127;51.050;14.084;2023-07-13T07:12:44;6.00;;;3.80;;
78783;SDS011;68127;51.050;14.084;2023-07-13T07:15:10;8.93;;;4.43;;
78783;SDS011;68127;51.050;14.084;2023-07-13T07:17:35;5.68;;;3.83;;
78783;SDS011;68127;51.050;14.084;2023-07-13T07:20:01;5.60;;;3.80;;
78783;SDS011;68127;51.050;14.084;2023-07-13T07:22:26;7.45;;;3.83;;
78783;SDS011;68127;51.050;14.084;2023-07-13T07:24:52;8.80;;;3.67;;
78783;SDS011;68127;51.050;14.084;2023-07-13T07:27:18;9.88;;;3.80;;
78783;SDS011;68127;51.050;14.084;2023-07-13T07:29:43;6.90;;;3.70;;
78783;SDS011;68127;51.050;14.084;2023-07-13T07:32:08;6.38;;;4.30;;
78783;SDS011;68127;51.050;14.084;2023-07-13T07:34:34;9.38;;;4.53;;
78783;SDS011;68127;51.050;14.084;2023-07-13T07:36:59;6.90;;;4.30;;
78783;SDS011;68127;51.050;14.084;2023-07-13T07:39:26;5.85;;;3.88;;
78783;SDS011;68127;51.050;14.084;2023-07-13T07:41:51;5.90;;;4.13;;
78783;SDS011;68127;51.050;14.084;2023-07-13T07:44:16;7.45;;;4.32;;
78783;SDS011;68127;51.050;14.084;2023-07-13T07:46:41;8.57;;;3.75;;
78783;SDS011;68127;51.050;14.084;2023-07-13T07:49:07;9.10;;;3.92;;
78783;SDS011;68127;51.050;14.084;2023-07-13T07:51:32;6.55;;;4.20;;
78783;SDS011;68127;51.050;14.084;2023-07-13T07:53:57;7.18;;;4.15;;
78783;SDS011;68127;51.050;14.084;2023-07-13T07:56:22;6.07;;;3.88;;
78783;SDS011;68127;51.050;14.084;2023-07-13T07:58:48;5.47;;;3.97;;
78783;SDS011;68127;51.050;14.084;2023-07-13T08:01:13;7.57;;;3.38;;
78783;SDS011;68127;51.050;14.084;2023-07-13T08:03:38;8.25;;;3.45;;
78783;SDS011;68127;51.050;14.084;2023-07-13T08:06:04;8.63;;;3.65;;
78783;SDS011;68127;51.050;14.084;2023-07-13T08:08:29;6.57;;;3.00;;
78783;SDS011;68127;51.050;14.084;2023-07-13T08:10:54;7.47;;;2.88;;
78783;SDS011;68127;51.050;14.084;2023-07-13T08:13:19;5.70;;;2.88;;
78783;SDS011;68127;51.050;14.084;2023-07-13T08:15:45;6.65;;;2.83;;
78783;SDS011;68127;51.050;14.084;2023-07-13T08:18:11;9.55;;;2.90;;
78783;SDS011;68127;51.050;14.084;2023-07-13T08:20:37;5.43;;;2.90;;
78783;SDS011;68127;51.050;14.084;2023-07-13T08:23:03;6.20;;;2.67;;
78783;SDS011;68127;51.050;14.084;2023-07-13T08:25:28;4.45;;;2.50;;
78783;SDS011;68127;51.050;14.084;2023-07-13T08:27:54;6.43;;;2.83;;
78783;SDS011;68127;51.050;14.084;2023-07-13T08:30:19;5.28;;;2.60;;
78783;SDS011;68127;51.050;14.084;2023-07-13T08:32:44;6.93;;;2.60;;
78783;SDS011;68127;51.050;14.084;2023-07-13T08:35:09;5.78;;;2.55;;
78783;SDS011;68127;51.050;14.084;2023-07-13T08:37:35;6.00;;;2.28;;
78783;SDS011;68127;51.050;14.084;2023-07-13T08:40:00;6.00;;;2.40;;
78783;SDS011;68127;51.050;14.084;2023-07-13T08:42:33;6.80;;;2.33;;
78783;SDS011;68127;51.050;14.084;2023-07-13T08:50:28;5.50;;;2.10;;
78783;SDS011;68127;51.050;14.084;2023-07-13T08:52:56;4.28;;;1.80;;
78783;SDS011;68127;51.050;14.084;2023-07-13T08:55:24;3.95;;;2.20;;
78783;SDS011;68127;51.050;14.084;2023-07-13T08:57:56;4.13;;;2.20;;
78783;SDS011;68127;51.050;14.084;2023-07-13T09:00:27;4.68;;;2.00;;
78783;SDS011;68127;51.050;14.084;2023-07-13T09:02:59;5.13;;;2.25;;
78783;SDS011;68127;51.050;14.084;2023-07-13T09:10:44;4.85;;;2.17;;
78783;SDS011;68127;51.050;14.084;2023-07-13T09:13:33;5.38;;;2.22;;
78783;SDS011;68127;51.050;14.084;2023-07-13T09:16:25;5.22;;;2.20;;
78783;SDS011;68127;51.050;14.084;2023-07-13T09:18:50;8.20;;;2.30;;
78783;SDS011;68127;51.050;14.084;2023-07-13T09:23:53;7.88;;;2.30;;
78783;SDS011;68127;51.050;14.084;2023-07-13T09:26:19;5.22;;;2.22;;
78783;SDS011;68127;51.050;14.084;2023-07-13T09:28:50;6.13;;;2.20;;
78783;SDS011;68127;51.050;14.084;2023-07-13T09:31:19;8.38;;;2.30;;
78783;SDS011;68127;51.050;14.084;2023-07-13T09:33:48;6.20;;;2.05;;
78783;SDS011;68127;51.050;14.084;2023-07-13T09:36:17;5.20;;;2.03;;
78783;SDS011;68127;51.050;14.084;2023-07-13T09:38:44;4.55;;;2.20;;
78783;SDS011;68127;51.050;14.084;2023-07-13T09:46:34;6.25;;;2.08;;
78783;SDS011;68127;51.050;14.084;2023-07-13T09:48:59;4.63;;;2.00;;
78783;SDS011;68127;51.050;14.084;2023-07-13T09:51:24;4.75;;;1.80;;
78783;SDS011;68127;51.050;14.084;2023-07-13T09:53:50;6.38;;;2.05;;
78783;SDS011;68127;51.050;14.084;2023-07-13T09:56:22;4.93;;;1.95;;
78783;SDS011;68127;51.050;14.084;2023-07-13T09:58:49;6.43;;;2.17;;
78783;SDS011;68127;51.050;14.084;2023-07-13T10:01:15;7.20;;;2.30;;
78783;SDS011;68127;51.050;14.084;2023-07-13T10:03:51;5.72;;;2.10;;
78783;SDS011;68127;51.050;14.084;2023-07-13T10:06:18;5.40;;;1.80;;
78783;SDS011;68127;51.050;14.084;2023-07-13T10:08:46;3.70;;;2.10;;
78783;SDS011;68127;51.050;14.084;2023-07-13T10:11:27;5.28;;;2.08;;
78783;SDS011;68127;51.050;14.084;2023-07-13T10:13:58;5.22;;;2.30;;
78783;SDS011;68127;51.050;14.084;2023-07-13T10:16:26;5.82;;;2.20;;
78783;SDS011;68127;51.050;14.084;2023-07-13T10:18:58;6.18;;;2.00;;
78783;SDS011;68127;51.050;14.084;2023-07-13T10:21:27;5.07;;;1.95;;
78783;SDS011;68127;51.050;14.084;2023-07-13T10:24:02;5.45;;;2.58;;
78783;SDS011;68127;51.050;14.084;2023-07-13T10:26:36;6.53;;;2.35;;
78783;SDS011;68127;51.050;14.084;2023-07-13T10:29:09;5.00;;;2.10;;
78783;SDS011;68127;51.050;14.084;2023-07-13T10:31:37;7.22;;;2.47;;
78783;SDS011;68127;51.050;14.084;2023-07-13T10:34:08;5.22;;;2.10;;
78783;SDS011;68127;51.050;14.084;2023-07-13T10:37:27;5.65;;;2.30;;
78783;SDS011;68127;51.050;14.084;2023-07-13T10:39:55;6.95;;;2.25;;
78783;SDS011;68127;51.050;14.084;2023-07-13T10:42:27;5.63;;;2.25;;
78783;SDS011;68127;51.050;14.084;2023-07-13T10:47:19;4.13;;;2.00;;
78783;SDS011;68127;51.050;14.084;2023-07-13T10:49:45;6.57;;;2.10;;
78783;SDS011;68127;51.050;14.084;2023-07-13T10:58:13;4.18;;;2.00;;
78783;SDS011;68127;51.050;14.084;2023-07-13T11:00:43;5.18;;;2.13;;
78783;SDS011;68127;51.050;14.084;2023-07-13T11:03:14;6.00;;;2.00;;
78783;SDS011;68127;51.050;14.084;2023-07-13T11:05:42;5.07;;;2.00;;
78783;SDS011;68127;51.050;14.084;2023-07-13T11:08:24;4.65;;;2.00;;
78783;SDS011;68127;51.050;14.084;2023-07-13T11:11:07;5.30;;;2.10;;
78783;SDS011;68127;51.050;14.084;2023-07-13T11:18:45;4.70;;;1.80;;
78783;SDS011;68127;51.050;14.084;2023-07-13T11:21:14;4.35;;;2.15;;
78783;SDS011;68127;51.050;14.084;2023-07-13T11:23:41;9.23;;;2.10;;
78783;SDS011;68127;51.050;14.084;2023-07-13T11:31:57;8.60;;;2.10;;
78783;SDS011;68127;51.050;14.084;2023-07-13T11:34:30;6.75;;;1.95;;
78783;SDS011;68127;51.050;14.084;2023-07-13T11:36:57;5.95;;;2.00;;
78783;SDS011;68127;51.050;14.084;2023-07-13T11:39:33;10.70;;;2.80;;
78783;SDS011;68127;51.050;14.084;2023-07-13T11:42:01;4.05;;;1.77;;
78783;SDS011;68127;51.050;14.084;2023-07-13T11:44:29;4.47;;;1.80;;
78783;SDS011;68127;51.050;14.084;2023-07-13T11:47:00;5.05;;;1.90;;
78783;SDS011;68127;51.050;14.084;2023-07-13T11:49:42;3.92;;;1.73;;
78783;SDS011;68127;51.050;14.084;2023-07-13T11:52:14;4.90;;;1.75;;
78783;SDS011;68127;51.050;14.084;2023-07-13T11:54:51;5.93;;;2.05;;
78783;SDS011;68127;51.050;14.084;2023-07-13T11:57:30;4.30;;;1.80;;
78783;SDS011;68127;51.050;14.084;2023-07-13T12:00:33;4.43;;;1.55;;
78783;SDS011;68127;51.050;14.084;2023-07-13T12:02:55;5.90;;;1.70;;
78783;SDS011;68127;51.050;14.084;2023-07-13T12:05:21;9.20;;;2.25;;
78783;SDS011;68127;51.050;14.084;2023-07-13T12:07:47;8.73;;;2.33;;
78783;SDS011;68127;51.050;14.084;2023-07-13T12:12:40;9.07;;;2.20;;
78783;SDS011;68127;51.050;14.084;2023-07-13T12:15:12;4.15;;;1.80;;
78783;SDS011;68127;51.050;14.084;2023-07-13T12:17:38;4.93;;;1.83;;
78783;SDS011;68127;51.050;14.084;2023-07-13T12:20:07;5.22;;;2.05;;
78783;SDS011;68127;51.050;14.084;2023-07-13T12:22:45;4.43;;;1.90;;
78783;SDS011;68127;51.050;14.084;2023-07-13T12:25:12;5.88;;;2.00;;
78783;SDS011;68127;51.050;14.084;2023-07-13T12:27:37;4.32;;;1.85;;
78783;SDS011;68127;51.050;14.084;2023-07-13T12:30:04;4.53;;;1.83;;
78783;SDS011;68127;51.050;14.084;2023-07-13T12:32:40;5.38;;;1.88;;
78783;SDS011;68127;51.050;14.084;2023-07-13T12:35:13;4.57;;;1.80;;
78783;SDS011;68127;51.050;14.084;2023-07-13T12:37:44;4.20;;;1.80;;
78783;SDS011;68127;51.050;14.084;2023-07-13T12:40:17;5.85;;;2.00;;
78783;SDS011;68127;51.050;14.084;2023-07-13T12:42:45;4.10;;;1.73;;
78783;SDS011;68127;51.050;14.084;2023-07-13T12:45:21;3.55;;;1.85;;
78783;SDS011;68127;51.050;14.084;2023-07-13T12:47:52;6.22;;;2.00;;
78783;SDS011;68127;51.050;14.084;2023-07-13T12:50:20;3.83;;;1.90;;
78783;SDS011;68127;51.050;14.084;2023-07-13T12:52:54;5.65;;;2.20;;
78783;SDS011;68127;51.050;14.084;2023-07-13T12:55:26;3.65;;;1.73;;
78783;SDS011;68127;51.050;14.084;2023-07-13T12:57:53;5.88;;;1.90;;
78783;SDS011;68127;51.050;14.084;2023-07-13T13:00:27;5.78;;;2.10;;
78783;SDS011;68127;51.050;14.084;2023-07-13T13:03:04;5.07;;;2.00;;
78783;SDS011;68127;51.050;14.084;2023-07-13T13:05:30;4.75;;;1.90;;
78783;SDS011;68127;51.050;14.084;2023-07-13T13:07:57;6.10;;;2.05;;
78783;SDS011;68127;51.050;14.084;2023-07-13T13:10:22;4.60;;;1.92;;
78783;SDS011;68127;51.050;14.084;2023-07-13T13:12:48;7.88;;;1.90;;
78783;SDS011;68127;51.050;14.084;2023-07-13T13:15:13;5.75;;;1.98;;
78783;SDS011;68127;51.050;14.084;2023-07-13T13:17:39;3.17;;;1.70;;
78783;SDS011;68127;51.050;14.084;2023-07-13T13:20:13;3.30;;;1.60;;
78783;SDS011;68127;51.050;14.084;2023-07-13T13:22:39;5.88;;;2.03;;
78783;SDS011;68127;51.050;14.084;2023-07-13T13:25:05;4.88;;;1.85;;
78783;SDS011;68127;51.050;14.084;2023-07-13T13:27:32;7.30;;;2.05;;
78783;SDS011;68127;51.050;14.084;2023-07-13T13:29:57;5.30;;;1.60;;
78783;SDS011;68127;51.050;14.084;2023-07-13T13:32:22;4.50;;;1.90;;
78783;SDS011;68127;51.050;14.084;2023-07-13T13:34:48;6.35;;;1.90;;
78783;SDS011;68127;51.050;14.084;2023-07-13T13:37:17;3.95;;;1.90;;
78783;SDS011;68127;51.050;14.084;2023-07-13T13:39:44;6.53;;;2.00;;
78783;SDS011;68127;51.050;14.084;2023-07-13T13:42:10;5.40;;;1.80;;
78783;SDS011;68127;51.050;14.084;2023-07-13T13:44:36;5.70;;;1.90;;
78783;SDS011;68127;51.050;14.084;2023-07-13T13:47:01;4.53;;;1.70;;
78783;SDS011;68127;51.050;14.084;2023-07-13T13:49:27;4.40;;;1.83;;
78783;SDS011;68127;51.050;14.084;2023-07-13T13:51:53;4.78;;;1.90;;
78783;SDS011;68127;51.050;14.084;2023-07-13T13:54:19;4.70;;;1.90;;
78783;SDS011;68127;51.050;14.084;2023-07-13T13:56:47;6.32;;;1.92;;
78783;SDS011;68127;51.050;14.084;2023-07-13T13:59:13;3.10;;;1.67;;
78783;SDS011;68127;51.050;14.084;2023-07-13T14:01:39;4.70;;;2.30;;
78783;SDS011;68127;51.050;14.084;2023-07-13T14:04:06;4.72;;;1.80;;
78783;SDS011;68127;51.050;14.084;2023-07-13T14:06:32;4.55;;;1.85;;
78783;SDS011;68127;51.050;14.084;2023-07-13T14:08:58;4.07;;;1.80;;
78783;SDS011;68127;51.050;14.084;2023-07-13T14:11:24;4.57;;;1.90;;
78783;SDS011;68127;51.050;14.084;2023-07-13T14:13:52;3.97;;;1.77;;
78783;SDS011;68127;51.050;14.084;2023-07-13T14:16:19;5.13;;;2.00;;
78783;SDS011;68127;51.050;14.084;2023-07-13T14:18:46;4.88;;;1.55;;
78783;SDS011;68127;51.050;14.084;2023-07-13T14:21:15;3.50;;;1.80;;
78783;SDS011;68127;51.050;14.084;2023-07-13T14:23:47;5.03;;;1.90;;
78783;SDS011;68127;51.050;14.084;2023-07-13T14:26:14;6.30;;;2.08;;
78783;SDS011;68127;51.050;14.084;2023-07-13T14:28:42;5.40;;;1.67;;
78783;SDS011;68127;51.050;14.084;2023-07-13T14:31:10;4.15;;;1.70;;
78783;SDS011;68127;51.050;14.084;2023-07-13T14:33:36;4.78;;;1.70;;
78783;SDS011;68127;51.050;14.084;2023-07-13T14:36:02;5.78;;;2.00;;
78783;SDS011;68127;51.050;14.084;2023-07-13T14:38:30;7.22;;;2.00;;
78783;SDS011;68127;51.050;14.084;2023-07-13T14:40:55;8.90;;;2.03;;
78783;SDS011;68127;51.050;14.084;2023-07-13T14:43:20;4.15;;;1.70;;
78783;SDS011;68127;51.050;14.084;2023-07-13T14:45:46;3.97;;;1.83;;
78783;SDS011;68127;51.050;14.084;2023-07-13T14:48:15;4.65;;;1.95;;
78783;SDS011;68127;51.050;14.084;2023-07-13T14:50:42;3.88;;;1.80;;
78783;SDS011;68127;51.050;14.084;2023-07-13T14:53:11;6.22;;;1.98;;
78783;SDS011;68127;51.050;14.084;2023-07-13T14:55:37;3.72;;;1.95;;
78783;SDS011;68127;51.050;14.084;2023-07-13T14:58:02;3.22;;;1.65;;
78783;SDS011;68127;51.050;14.084;2023-07-13T15:00:28;5.10;;;1.75;;
78783;SDS011;68127;51.050;14.084;2023-07-13T15:02:54;3.95;;;1.77;;
78783;SDS011;68127;51.050;14.084;2023-07-13T15:05:25;4.80;;;1.85;;
78783;SDS011;68127;51.050;14.084;2023-07-13T15:07:55;4.65;;;1.70;;
78783;SDS011;68127;51.050;14.084;2023-07-13T15:10:26;6.78;;;1.80;;
78783;SDS011;68127;51.050;14.084;2023-07-13T15:13:19;6.20;;;1.98;;
78783;SDS011;68127;51.050;14.084;2023-07-13T15:15:46;2.65;;;1.50;;
78783;SDS011;68127;51.050;14.084;2023-07-13T15:18:15;3.60;;;1.73;;
78783;SDS011;68127;51.050;14.084;2023-07-13T15:20:42;7.28;;;1.85;;
78783;SDS011;68127;51.050;14.084;2023-07-13T15:23:10;5.03;;;1.90;;